createdAt,value
2022-12-20T00:02:22.503Z,1009.19
2022-12-20T00:05:29.934Z,1009.03
2022-12-20T00:08:37.568Z,1008.97
2022-12-20T00:11:44.579Z,1009.01
2022-12-20T00:14:51.740Z,1008.93
2022-12-20T00:17:59.337Z,1008.87
2022-12-20T00:21:06.051Z,1008.98
2022-12-20T00:24:13.616Z,1008.97
2022-12-20T00:27:21.319Z,1008.95
2022-12-20T00:30:28.032Z,1008.83
2022-12-20T00:33:35.562Z,1008.79
2022-12-20T00:36:42.707Z,1008.76
2022-12-20T00:39:49.630Z,1008.72
2022-12-20T00:42:57.189Z,1008.69
2022-12-20T00:46:04.327Z,1008.71
2022-12-20T00:49:11.931Z,1008.72
2022-12-20T00:52:19.200Z,1008.76
2022-12-20T00:55:26.586Z,1008.77
2022-12-20T00:58:33.839Z,1008.72
2022-12-20T01:01:40.844Z,1008.68
2022-12-20T01:04:48.104Z,1008.73
2022-12-20T01:07:55.512Z,1008.69
2022-12-20T01:11:02.656Z,1008.66
2022-12-20T01:14:10.079Z,1008.59
2022-12-20T01:17:17.500Z,1008.59
2022-12-20T01:20:24.268Z,1008.63
2022-12-20T01:23:32.191Z,1008.64
2022-12-20T01:26:40.173Z,1008.72
2022-12-20T01:29:47.559Z,1008.60
2022-12-20T01:32:55.759Z,1008.56
2022-12-20T01:36:04.048Z,1008.52
2022-12-20T01:39:11.981Z,1008.49
2022-12-20T01:42:20.358Z,1008.50
2022-12-20T01:45:28.376Z,1008.40
2022-12-20T01:48:36.032Z,1008.47
2022-12-20T01:51:44.191Z,1008.37
2022-12-20T01:54:52.037Z,1008.41
2022-12-20T01:57:59.830Z,1008.50
2022-12-20T02:01:07.873Z,1008.41
2022-12-20T02:04:15.887Z,1008.38
2022-12-20T02:07:23.784Z,1008.37
2022-12-20T02:10:31.312Z,1008.29
2022-12-20T02:13:39.397Z,1008.18
2022-12-20T02:16:47.165Z,1008.17
2022-12-20T02:19:54.450Z,1008.15
2022-12-20T02:23:02.129Z,1008.15
2022-12-20T02:26:09.719Z,1008.12
2022-12-20T02:29:17.390Z,1008.22
2022-12-20T02:32:25.719Z,1008.18
2022-12-20T02:35:33.607Z,1008.22
2022-12-20T02:38:41.703Z,1008.02
2022-12-20T02:41:49.885Z,1008.17
2022-12-20T02:44:57.521Z,1008.17
2022-12-20T02:48:05.165Z,1008.30
2022-12-20T02:51:12.966Z,1008.28
2022-12-20T02:54:21.100Z,1008.26
2022-12-20T02:57:29.143Z,1008.15
2022-12-20T03:00:36.673Z,1008.14
2022-12-20T03:03:45.070Z,1008.10
2022-12-20T03:06:52.358Z,1008.06
2022-12-20T03:10:00.471Z,1008.04
2022-12-20T03:13:08.691Z,1007.98
2022-12-20T03:16:16.253Z,1008.01
2022-12-20T03:19:24.433Z,1008.04
2022-12-20T03:22:32.800Z,1007.82
2022-12-20T03:25:40.115Z,1007.92
2022-12-20T03:28:48.260Z,1007.88
2022-12-20T03:31:55.918Z,1007.82
2022-12-20T03:35:03.218Z,1007.82
2022-12-20T03:38:11.336Z,1007.87
2022-12-20T03:41:19.432Z,1007.80
2022-12-20T03:44:27.100Z,1007.79
2022-12-20T03:47:35.420Z,1007.71
2022-12-20T03:50:43.438Z,1007.77
2022-12-20T03:53:51.173Z,1007.77
2022-12-20T03:56:58.980Z,1007.61
2022-12-20T04:00:06.806Z,1007.46
2022-12-20T04:03:15.003Z,1007.46
2022-12-20T04:06:22.626Z,1007.73
2022-12-20T04:09:31.803Z,1007.71
2022-12-20T04:12:39.887Z,1007.58
2022-12-20T04:15:47.382Z,1007.53
2022-12-20T04:18:55.570Z,1007.68
2022-12-20T04:22:05.923Z,1007.71
2022-12-20T04:25:07.072Z,1007.81
2022-12-20T04:28:15.001Z,1007.78
2022-12-20T04:31:24.365Z,1007.71
2022-12-20T04:34:32.920Z,1007.67
2022-12-20T04:37:41.409Z,1007.66
2022-12-20T04:40:49.253Z,1007.61
2022-12-20T04:43:56.973Z,1007.61
2022-12-20T04:47:05.125Z,1007.65
2022-12-20T04:50:12.564Z,1007.62
2022-12-20T04:53:20.891Z,1007.56
2022-12-20T04:56:28.914Z,1007.59
2022-12-20T04:59:36.728Z,1007.67
2022-12-20T05:02:44.912Z,1007.64
2022-12-20T05:05:52.917Z,1007.60
2022-12-20T05:09:00.838Z,1007.68
2022-12-20T05:12:08.981Z,1007.75
2022-12-20T05:15:16.870Z,1007.71
2022-12-20T05:18:25.399Z,1007.69
2022-12-20T05:21:32.964Z,1007.76
2022-12-20T05:24:41.339Z,1007.80
2022-12-20T05:27:49.691Z,1007.74
2022-12-20T05:30:57.222Z,1007.71
2022-12-20T05:34:05.596Z,1007.64
2022-12-20T05:37:13.575Z,1007.63
2022-12-20T05:40:21.191Z,1007.65
2022-12-20T05:43:29.706Z,1007.71
2022-12-20T05:46:37.755Z,1007.76
2022-12-20T05:49:45.648Z,1007.73
2022-12-20T05:52:53.782Z,1007.66
2022-12-20T05:56:01.830Z,1007.65
2022-12-20T05:59:09.335Z,1007.60
2022-12-20T06:02:17.977Z,1007.60
2022-12-20T06:05:26.010Z,1007.49
2022-12-20T06:08:33.988Z,1007.54
2022-12-20T06:11:41.777Z,1007.56
2022-12-20T06:14:50.201Z,1007.53
2022-12-20T06:17:58.434Z,1007.62
2022-12-20T06:21:06.897Z,1007.57
2022-12-20T06:24:15.614Z,1007.55
2022-12-20T06:27:24.090Z,1007.55
2022-12-20T06:30:34.217Z,1007.63
2022-12-20T06:33:43.118Z,1007.62
2022-12-20T06:36:51.116Z,1007.64
2022-12-20T06:39:59.870Z,1007.66
2022-12-20T06:43:08.699Z,1007.70
2022-12-20T06:46:16.915Z,1007.67
2022-12-20T06:49:25.507Z,1007.73
2022-12-20T06:52:33.765Z,1007.59
2022-12-20T06:55:42.163Z,1007.61
2022-12-20T06:58:51.029Z,1007.63
2022-12-20T07:01:59.348Z,1007.67
2022-12-20T07:05:07.983Z,1007.69
2022-12-20T07:08:16.322Z,1007.71
2022-12-20T07:11:24.630Z,1007.69
2022-12-20T07:14:34.607Z,1007.64
2022-12-20T07:17:42.408Z,1007.62
2022-12-20T07:20:52.178Z,1007.59
2022-12-20T07:24:00.659Z,1007.58
2022-12-20T07:27:08.536Z,1007.49
2022-12-20T07:30:16.818Z,1007.56
2022-12-20T07:33:25.297Z,1007.52
2022-12-20T07:36:33.781Z,1007.55
2022-12-20T07:39:42.325Z,1007.50
2022-12-20T07:42:50.688Z,1007.52
2022-12-20T07:45:59.129Z,1007.55
2022-12-20T07:49:08.890Z,1007.57
2022-12-20T07:52:17.092Z,1007.53
2022-12-20T07:55:25.339Z,1007.57
2022-12-20T07:58:33.659Z,1007.57
2022-12-20T08:01:42.422Z,1007.58
2022-12-20T08:04:50.798Z,1007.64
2022-12-20T08:07:59.797Z,1007.50
2022-12-20T08:11:08.586Z,1007.53
2022-12-20T08:14:16.364Z,1007.64
2022-12-20T08:17:25.006Z,1007.61
2022-12-20T08:20:33.803Z,1007.57
2022-12-20T08:23:41.719Z,1007.55
2022-12-20T08:26:50.293Z,1007.47
2022-12-20T08:29:58.574Z,1007.42
2022-12-20T08:33:06.905Z,1007.48
2022-12-20T08:36:15.229Z,1007.42
2022-12-20T08:39:23.372Z,1007.36
2022-12-20T08:42:31.871Z,1007.25
2022-12-20T08:45:40.202Z,1007.17
2022-12-20T08:48:48.522Z,1007.08
2022-12-20T08:51:56.865Z,1007.09
2022-12-20T08:55:05.578Z,1007.21
2022-12-20T08:58:13.825Z,1007.27
2022-12-20T09:01:22.423Z,1007.31
2022-12-20T09:04:30.841Z,1007.22
2022-12-20T09:07:39.664Z,1007.15
2022-12-20T09:10:48.473Z,1006.98
2022-12-20T09:13:56.355Z,1006.94
2022-12-20T09:17:04.980Z,1006.88
2022-12-20T09:20:13.600Z,1006.93
2022-12-20T09:23:21.648Z,1006.92
2022-12-20T09:26:30.797Z,1006.84
2022-12-20T09:29:39.440Z,1006.71
2022-12-20T09:32:47.424Z,1006.82
2022-12-20T09:35:56.425Z,1006.92
2022-12-20T09:39:04.891Z,1006.94
2022-12-20T09:42:13.320Z,1006.88
2022-12-20T09:45:21.905Z,1006.90
2022-12-20T09:48:30.233Z,1006.84
2022-12-20T09:51:38.524Z,1006.90
2022-12-20T09:54:46.728Z,1006.78
2022-12-20T09:57:54.858Z,1006.83
2022-12-20T10:01:03.734Z,1006.82
2022-12-20T10:04:12.204Z,1006.71
2022-12-20T10:07:21.732Z,1006.75
2022-12-20T10:10:30.637Z,1006.84
2022-12-20T10:13:38.551Z,1006.71
2022-12-20T10:16:47.419Z,1006.61
2022-12-20T10:19:56.149Z,1006.76
2022-12-20T10:23:03.982Z,1006.62
2022-12-20T10:26:12.494Z,1006.54
2022-12-20T10:29:21.099Z,1006.45
2022-12-20T10:32:29.058Z,1006.45
2022-12-20T10:35:37.975Z,1006.43
2022-12-20T10:38:46.183Z,1006.45
2022-12-20T10:41:54.531Z,1006.29
2022-12-20T10:45:03.342Z,1006.30
2022-12-20T10:48:11.664Z,1006.15
2022-12-20T10:51:20.134Z,1006.10
2022-12-20T10:54:28.656Z,1006.21
2022-12-20T10:57:36.852Z,1006.14
2022-12-20T11:00:44.901Z,1006.14
2022-12-20T11:03:53.346Z,1006.05
2022-12-20T11:07:02.225Z,1006.01
2022-12-20T11:10:10.601Z,1006.07
2022-12-20T11:13:18.977Z,1005.94
2022-12-20T11:16:28.115Z,1005.86
2022-12-20T11:19:36.335Z,1005.81
2022-12-20T11:22:45.131Z,1005.74
2022-12-20T11:25:54.601Z,1005.83
2022-12-20T11:29:02.776Z,1005.79
2022-12-20T11:32:12.129Z,1005.82
2022-12-20T11:35:21.117Z,1005.87
2022-12-20T11:38:29.808Z,1005.86
2022-12-20T11:41:38.927Z,1005.77
2022-12-20T11:44:53.307Z,1005.59
2022-12-20T11:47:56.119Z,1005.60
2022-12-20T11:51:07.557Z,1005.60
2022-12-20T11:54:08.286Z,1005.58
2022-12-20T11:57:17.927Z,1005.64
2022-12-20T12:00:27.279Z,1005.64
2022-12-20T12:03:37.927Z,1005.58
2022-12-20T12:06:47.389Z,1005.55
2022-12-20T12:09:57.141Z,1005.53
2022-12-20T12:13:07.277Z,1005.52
2022-12-20T12:16:16.397Z,1005.49
2022-12-20T12:19:26.445Z,1005.54
2022-12-20T12:22:36.144Z,1005.51
2022-12-20T12:25:45.204Z,1005.39
2022-12-20T12:28:54.754Z,1005.36
2022-12-20T12:32:04.523Z,1005.22
2022-12-20T12:35:13.545Z,1005.18
2022-12-20T12:38:23.928Z,1005.16
2022-12-20T12:41:33.228Z,1005.09
2022-12-20T12:44:42.777Z,1005.05
2022-12-20T12:47:52.269Z,1005.18
2022-12-20T12:51:01.540Z,1005.16
2022-12-20T12:54:10.501Z,1005.16
2022-12-20T12:57:19.813Z,1005.10
2022-12-20T13:00:28.843Z,1004.99
2022-12-20T13:03:38.725Z,1005.00
2022-12-20T13:06:48.399Z,1004.99
2022-12-20T13:09:57.875Z,1005.00
2022-12-20T13:13:07.166Z,1004.70
2022-12-20T13:16:16.595Z,1004.91
2022-12-20T13:19:25.913Z,1004.80
2022-12-20T13:22:35.605Z,1004.72
2022-12-20T13:25:44.941Z,1004.69
2022-12-20T13:28:54.294Z,1004.65
2022-12-20T13:32:03.928Z,1004.68
2022-12-20T13:35:13.293Z,1004.67
2022-12-20T13:38:22.702Z,1004.60
2022-12-20T13:41:35.152Z,1004.66
2022-12-20T13:44:33.752Z,1004.75
2022-12-20T13:47:43.593Z,1004.72
2022-12-20T13:50:53.174Z,1004.66
2022-12-20T13:54:02.120Z,1004.68
2022-12-20T13:57:11.758Z,1004.55
2022-12-20T14:00:20.919Z,1004.54
2022-12-20T14:03:30.553Z,1004.54
2022-12-20T14:06:40.220Z,1004.60
2022-12-20T14:09:49.459Z,1004.63
2022-12-20T14:12:58.748Z,1004.67
2022-12-20T14:16:08.082Z,1004.63
2022-12-20T14:19:17.639Z,1004.68
2022-12-20T14:22:26.911Z,1004.69
2022-12-20T14:25:36.262Z,1004.57
2022-12-20T14:28:45.950Z,1004.53
2022-12-20T14:31:55.317Z,1004.63
2022-12-20T14:35:04.667Z,1004.59
2022-12-20T14:38:14.796Z,1004.54
2022-12-20T14:41:24.107Z,1004.45
2022-12-20T14:44:33.256Z,1004.41
2022-12-20T14:47:42.957Z,1004.35
2022-12-20T14:50:51.778Z,1004.41
2022-12-20T14:54:00.914Z,1004.39
2022-12-20T14:57:10.499Z,1004.27
2022-12-20T15:00:19.547Z,1004.28
2022-12-20T15:03:29.717Z,1004.37
2022-12-20T15:06:40.131Z,1004.39
2022-12-20T15:09:49.722Z,1004.34
2022-12-20T15:12:59.091Z,1004.33
2022-12-20T15:16:08.308Z,1004.27
2022-12-20T15:19:17.794Z,1004.33
2022-12-20T15:22:27.034Z,1004.29
2022-12-20T15:25:41.201Z,1004.22
2022-12-20T15:28:42.497Z,1004.22
2022-12-20T15:31:51.747Z,1004.10
2022-12-20T15:35:01.085Z,1004.05
2022-12-20T15:38:11.006Z,1004.08
2022-12-20T15:41:20.048Z,1004.10
2022-12-20T15:44:29.929Z,1004.05
2022-12-20T15:47:40.023Z,1003.94
2022-12-20T15:50:48.927Z,1004.12
2022-12-20T15:53:59.126Z,1004.01
2022-12-20T15:57:08.924Z,1004.09
2022-12-20T16:00:19.261Z,1004.03
2022-12-20T16:03:29.451Z,1004.03
2022-12-20T16:06:39.466Z,1004.02
2022-12-20T16:09:49.915Z,1004.03
2022-12-20T16:12:59.960Z,1004.17
2022-12-20T16:16:09.734Z,1004.12
2022-12-20T16:19:21.178Z,1004.18
2022-12-20T16:22:30.713Z,1004.15
2022-12-20T16:25:40.568Z,1003.94
2022-12-20T16:28:50.550Z,1004.00
2022-12-20T16:31:59.870Z,1004.07
2022-12-20T16:35:10.062Z,1003.96
2022-12-20T16:38:20.408Z,1004.11
2022-12-20T16:41:29.725Z,1004.18
2022-12-20T16:44:30.200Z,1004.25
2022-12-20T16:47:40.067Z,1004.23
2022-12-20T16:50:49.322Z,1004.22
2022-12-20T16:54:18.674Z,1004.19
2022-12-20T16:57:05.450Z,1004.19
2022-12-20T17:00:14.883Z,1004.23
2022-12-20T17:03:24.677Z,1004.18
2022-12-20T17:06:34.279Z,1004.01
2022-12-20T17:09:43.913Z,1004.09
2022-12-20T17:12:53.395Z,1004.13
2022-12-20T17:16:02.614Z,1004.12
2022-12-20T17:19:13.978Z,1003.98
2022-12-20T17:22:29.744Z,1003.97
2022-12-20T17:25:28.158Z,1003.93
2022-12-20T17:28:37.284Z,1004.09
2022-12-20T17:31:46.375Z,1004.15
2022-12-20T17:34:55.965Z,1004.11
2022-12-20T17:38:06.046Z,1003.93
2022-12-20T17:41:15.837Z,1004.00
2022-12-20T17:44:24.917Z,1003.90
2022-12-20T17:47:34.747Z,1004.03
2022-12-20T17:50:43.783Z,1003.92
2022-12-20T17:53:53.626Z,1004.06
2022-12-20T17:57:03.157Z,1004.14
2022-12-20T18:00:11.820Z,1004.13
2022-12-20T18:04:01.638Z,1004.14
2022-12-20T18:06:29.144Z,1004.03
2022-12-20T18:09:38.411Z,1004.10
2022-12-20T18:12:48.065Z,1004.00
2022-12-20T18:15:57.184Z,1003.94
2022-12-20T18:19:06.216Z,1003.87
2022-12-20T18:22:15.714Z,1003.92
2022-12-20T18:25:25.543Z,1003.84
2022-12-20T18:28:34.786Z,1003.90
2022-12-20T18:31:44.480Z,1003.88
2022-12-20T18:34:52.824Z,1003.78
2022-12-20T18:38:01.274Z,1003.82
2022-12-20T18:41:09.768Z,1004.00
2022-12-20T18:44:18.727Z,1003.95
2022-12-20T18:47:27.260Z,1003.97
2022-12-20T18:50:35.651Z,1003.85
2022-12-20T18:53:44.479Z,1003.72
2022-12-20T18:56:53.044Z,1003.74
2022-12-20T19:00:01.678Z,1003.69
2022-12-20T19:03:10.732Z,1003.69
2022-12-20T19:06:18.826Z,1003.75
2022-12-20T19:09:27.772Z,1003.72
2022-12-20T19:12:36.652Z,1003.58
2022-12-20T19:15:44.767Z,1003.68
2022-12-20T19:18:53.642Z,1003.60
2022-12-20T19:22:02.488Z,1003.48
2022-12-20T19:25:10.628Z,1003.39
2022-12-20T19:28:19.600Z,1003.42
2022-12-20T19:31:28.483Z,1003.48
2022-12-20T19:34:36.839Z,1003.43
2022-12-20T19:37:45.405Z,1003.36
2022-12-20T19:40:53.857Z,1003.39
2022-12-20T19:44:02.679Z,1003.31
2022-12-20T19:47:11.328Z,1003.49
2022-12-20T19:50:19.962Z,1003.56
2022-12-20T19:53:28.814Z,1003.51
2022-12-20T19:56:37.281Z,1003.54
2022-12-20T19:59:48.581Z,1003.51
2022-12-20T20:02:50.570Z,1003.47
2022-12-20T20:05:58.762Z,1003.46
2022-12-20T20:09:07.699Z,1003.52
2022-12-20T20:12:16.289Z,1003.49
2022-12-20T20:15:24.466Z,1003.49
2022-12-20T20:18:33.379Z,1003.40
2022-12-20T20:21:42.260Z,1003.42
2022-12-20T20:24:50.252Z,1003.40
2022-12-20T20:27:59.125Z,1003.28
2022-12-20T20:31:07.448Z,1003.33
2022-12-20T20:34:16.015Z,1003.30
2022-12-20T20:37:25.057Z,1003.31
2022-12-20T20:40:33.744Z,1003.35
2022-12-20T20:43:42.681Z,1003.29
2022-12-20T20:46:52.223Z,1003.28
2022-12-20T20:50:00.989Z,1003.31
2022-12-20T20:53:09.939Z,1003.36
2022-12-20T20:56:18.929Z,1003.39
2022-12-20T20:59:27.813Z,1003.39
2022-12-20T21:02:36.386Z,1003.45
2022-12-20T21:06:31.071Z,1003.44
2022-12-20T21:08:50.527Z,1003.39
2022-12-20T21:11:59.699Z,1003.35
2022-12-20T21:15:24.379Z,1003.35
2022-12-20T21:18:14.592Z,1003.25
2022-12-20T21:21:23.097Z,1003.35
2022-12-20T21:24:31.590Z,1003.30
2022-12-20T21:27:40.398Z,1003.35
2022-12-20T21:30:48.921Z,1003.32
2022-12-20T21:33:57.692Z,1003.33
2022-12-20T21:37:06.476Z,1003.25
2022-12-20T21:40:14.852Z,1003.24
2022-12-20T21:43:23.369Z,1003.18
2022-12-20T21:46:32.394Z,1003.25
2022-12-20T21:49:40.722Z,1003.16
2022-12-20T21:52:49.233Z,1003.08
2022-12-20T21:55:57.899Z,1003.13
2022-12-20T21:59:06.778Z,1003.14
2022-12-20T22:02:15.317Z,1003.17
2022-12-20T22:05:24.150Z,1003.15
2022-12-20T22:08:33.039Z,1003.00
2022-12-20T22:11:41.570Z,1003.15
2022-12-20T22:14:49.793Z,1003.14
2022-12-20T22:17:58.531Z,1003.12
2022-12-20T22:21:07.308Z,1003.10
2022-12-20T22:24:15.793Z,1003.11
2022-12-20T22:27:24.681Z,1003.12
2022-12-20T22:30:32.819Z,1003.12
2022-12-20T22:33:41.397Z,1003.12
2022-12-20T22:36:49.925Z,1003.16
2022-12-20T22:39:58.485Z,1003.25
2022-12-20T22:43:07.167Z,1003.23
2022-12-20T22:46:16.277Z,1003.15
2022-12-20T22:49:24.868Z,1003.09
2022-12-20T22:52:33.381Z,1003.06
2022-12-20T22:55:41.839Z,1003.06
2022-12-20T22:58:50.669Z,1003.11
2022-12-20T23:01:59.603Z,1003.01
2022-12-20T23:05:08.158Z,1002.91
2022-12-20T23:08:17.376Z,1002.83
2022-12-20T23:11:25.823Z,1002.89
2022-12-20T23:14:34.503Z,1002.86
2022-12-20T23:17:43.425Z,1002.81
2022-12-20T23:20:51.955Z,1002.69
2022-12-20T23:24:00.674Z,1002.79
2022-12-20T23:27:09.775Z,1002.83
2022-12-20T23:30:18.224Z,1002.74
2022-12-20T23:33:27.396Z,1002.66
2022-12-20T23:36:36.065Z,1002.65
2022-12-20T23:39:44.184Z,1002.60
2022-12-20T23:42:53.388Z,1002.60
2022-12-20T23:46:02.537Z,1002.59
2022-12-20T23:49:10.702Z,1002.59
2022-12-20T23:52:19.639Z,1002.58
2022-12-20T23:55:28.497Z,1002.55
2022-12-20T23:58:37.113Z,1002.51
